Time;durP1;ratioP1;P1;durP2;ratioP2;P2;SDS_P1;SDS_P2;PMS_P1;PMS_P2;Temp;Humidity;BMP_temperature;BMP_pressure;BME280_temperature;BME280_humidity;BME280_pressure;Samples;Min_cycle;Max_cycle;Signal;HPM_P1;HPM_P2
2022/01/01 00:00:16;;;;;;;19.65;11.18;;;9.70;99.90;;;;;;5000110;28;20061;-85
2022/01/01 00:02:42;;;;;;;16.30;9.10;;;9.70;99.90;;;;;;5027788;28;20381;-84
2022/01/01 00:05:10;;;;;;;13.43;8.07;;;9.70;99.90;;;;;;5049548;28;20592;-87
2022/01/01 00:07:38;;;;;;;15.90;9.23;;;9.70;99.90;;;;;;5010908;28;20057;-84
2022/01/01 00:10:08;;;;;;;17.38;9.32;;;9.70;99.90;;;;;;5008181;28;20040;-84
2022/01/01 00:12:38;;;;;;;17.77;8.85;;;9.70;99.90;;;;;;5015111;28;20052;-84
2022/01/01 00:15:04;;;;;;;17.67;8.82;;;9.70;99.90;;;;;;5021834;28;20032;-84
2022/01/01 00:17:30;;;;;;;16.00;8.73;;;9.70;99.90;;;;;;5037950;28;20542;-84
2022/01/01 00:19:59;;;;;;;21.17;10.30;;;9.60;99.90;;;;;;5008089;28;20140;-84
2022/01/01 00:22:28;;;;;;;26.20;13.65;;;9.60;99.90;;;;;;5034558;28;20452;-84
2022/01/01 00:24:58;;;;;;;23.58;12.82;;;9.60;99.90;;;;;;5032517;28;20090;-84
2022/01/01 00:27:24;;;;;;;22.10;13.07;;;9.60;99.90;;;;;;5035862;28;20080;-84
2022/01/01 00:29:50;;;;;;;22.00;10.57;;;9.60;99.90;;;;;;5010296;28;20082;-83
2022/01/01 00:32:16;;;;;;;21.95;11.50;;;9.60;99.90;;;;;;5055964;28;20040;-84
2022/01/01 00:34:42;;;;;;;27.60;11.70;;;9.60;99.90;;;;;;5020233;28;20033;-84
2022/01/01 00:37:08;;;;;;;22.58;11.18;;;9.60;99.90;;;;;;5024668;28;20059;-84
2022/01/01 00:39:34;;;;;;;25.70;12.07;;;9.60;99.90;;;;;;5040681;28;20420;-84
2022/01/01 00:42:00;;;;;;;25.90;12.48;;;9.60;99.90;;;;;;5052638;28;20031;-84
2022/01/01 00:44:29;;;;;;;26.48;12.85;;;9.60;99.90;;;;;;5015804;28;20511;-84
2022/01/01 00:46:57;;;;;;;27.55;12.93;;;9.60;99.90;;;;;;5041042;28;20039;-84
2022/01/01 00:49:23;;;;;;;28.48;12.48;;;9.60;99.90;;;;;;5036895;28;20029;-83
2022/01/01 00:51:49;;;;;;;30.00;14.07;;;9.50;99.90;;;;;;5037115;28;20032;-84
2022/01/01 00:54:15;;;;;;;26.88;13.35;;;9.50;99.90;;;;;;5000812;28;20626;-84
2022/01/01 00:56:40;;;;;;;27.00;13.55;;;9.60;99.90;;;;;;5036071;28;20056;-84
2022/01/01 00:59:10;;;;;;;30.20;13.95;;;9.50;99.90;;;;;;5035470;28;20077;-84
2022/01/01 01:01:37;;;;;;;33.67;14.15;;;9.60;99.90;;;;;;5021164;28;20028;-85
2022/01/01 01:04:03;;;;;;;25.40;13.75;;;9.50;99.90;;;;;;5017750;28;20440;-84
2022/01/01 01:06:29;;;;;;;30.10;13.02;;;9.50;99.90;;;;;;5008200;28;20530;-84
2022/01/01 01:08:58;;;;;;;31.33;14.45;;;9.50;99.90;;;;;;5009643;28;20034;-84
2022/01/01 01:11:24;;;;;;;28.60;12.93;;;9.50;99.90;;;;;;5007076;28;20036;-84
2022/01/01 01:13:57;;;;;;;37.13;13.90;;;9.50;99.90;;;;;;5010969;28;20041;-85
2022/01/01 01:16:24;;;;;;;28.05;14.15;;;9.50;99.90;;;;;;5027790;28;20491;-84
2022/01/01 01:18:53;;;;;;;28.23;13.77;;;9.50;99.90;;;;;;5035572;28;20091;-84
2022/01/01 01:21:20;;;;;;;32.10;14.00;;;9.50;99.90;;;;;;5016128;28;20029;-84
2022/01/01 01:23:48;;;;;;;28.42;14.18;;;9.50;99.90;;;;;;5037619;28;20533;-84
2022/01/01 01:26:13;;;;;;;33.40;14.35;;;9.50;99.90;;;;;;5035635;28;20028;-84
2022/01/01 01:28:46;;;;;;;33.38;14.20;;;9.50;99.90;;;;;;5002570;28;20048;-84
2022/01/01 01:31:11;;;;;;;31.63;13.88;;;9.50;99.90;;;;;;5021417;28;20033;-85
2022/01/01 01:33:37;;;;;;;28.10;13.50;;;9.50;99.90;;;;;;5015626;28;20032;-84
2022/01/01 01:36:03;;;;;;;33.13;14.50;;;9.50;99.90;;;;;;5019986;28;20504;-84
2022/01/01 01:38:29;;;;;;;28.10;13.30;;;9.50;99.90;;;;;;5040488;28;20483;-84
2022/01/01 01:40:55;;;;;;;33.03;14.00;;;9.50;99.90;;;;;;5001125;28;20029;-84
2022/01/01 01:43:21;;;;;;;28.83;13.38;;;9.50;99.90;;;;;;5029630;28;20024;-85
2022/01/01 01:45:52;;;;;;;31.08;13.27;;;9.50;99.90;;;;;;5052771;28;20111;-84
2022/01/01 01:48:18;;;;;;;23.45;13.38;;;9.50;99.90;;;;;;5016965;28;20063;-84
2022/01/01 01:50:44;;;;;;;30.73;13.80;;;9.50;99.90;;;;;;5019950;28;20462;-84
2022/01/01 01:53:10;;;;;;;29.25;14.15;;;9.50;99.90;;;;;;5036602;28;20051;-84
2022/01/01 01:55:36;;;;;;;27.70;13.75;;;9.50;99.90;;;;;;5026682;28;20028;-84
2022/01/01 01:58:03;;;;;;;32.35;14.27;;;9.50;99.90;;;;;;5048809;28;20027;-84
2022/01/01 02:03:13;;;;;;;35.38;13.88;;;9.50;99.90;;;;;;5046051;28;20036;-84
2022/01/01 02:05:39;;;;;;;32.13;14.60;;;9.50;99.90;;;;;;5019243;28;20455;-84
2022/01/01 02:08:06;;;;;;;31.38;13.55;;;9.50;99.90;;;;;;5028292;28;20551;-85
2022/01/01 02:10:33;;;;;;;35.25;15.40;;;9.50;99.90;;;;;;5036058;28;20488;-84
2022/01/01 02:13:05;;;;;;;31.27;15.35;;;9.50;99.90;;;;;;5024726;28;20290;-85
2022/01/01 02:18:05;;;;;;;36.30;16.10;;;9.50;99.90;;;;;;5044761;28;20025;-84
2022/01/01 02:20:31;;;;;;;35.17;15.07;;;9.50;99.90;;;;;;5038900;28;20013;-84
2022/01/01 02:23:00;;;;;;;39.80;15.13;;;9.50;99.90;;;;;;5012556;28;20488;-84
2022/01/01 02:25:28;;;;;;;38.05;16.17;;;9.50;99.90;;;;;;5038640;28;20036;-85
2022/01/01 02:27:54;;;;;;;37.05;15.32;;;9.50;99.90;;;;;;5025735;28;20133;-85
2022/01/01 02:30:20;;;;;;;36.20;15.25;;;9.50;99.90;;;;;;5031530;28;20060;-84
2022/01/01 02:32:46;;;;;;;44.13;16.42;;;9.50;99.90;;;;;;5027998;28;20096;-84
2022/01/01 02:35:15;;;;;;;29.83;13.85;;;9.50;99.90;;;;;;5013465;28;20049;-84
2022/01/01 02:37:41;;;;;;;29.80;13.13;;;9.50;99.90;;;;;;5031121;28;20032;-84
2022/01/01 02:40:07;;;;;;;32.60;14.23;;;9.50;99.90;;;;;;5012696;28;20025;-84
2022/01/01 02:42:34;;;;;;;25.48;12.32;;;9.50;99.90;;;;;;5039455;28;20485;-85
2022/01/01 02:45:05;;;;;;;29.88;13.77;;;9.50;99.90;;;;;;5041300;28;20031;-84
2022/01/01 02:47:31;;;;;;;26.58;12.65;;;9.50;99.90;;;;;;4992874;28;20049;-84
2022/01/01 02:49:57;;;;;;;26.05;11.85;;;9.60;99.90;;;;;;5035966;28;20493;-85
2022/01/01 02:52:22;;;;;;;20.77;10.10;;;9.60;99.90;;;;;;5021070;28;20033;-84
2022/01/01 02:54:48;;;;;;;22.67;12.70;;;9.60;99.90;;;;;;5000299;28;20056;-84
2022/01/01 02:57:18;;;;;;;24.48;11.43;;;9.60;99.90;;;;;;5048214;28;20062;-85
2022/01/01 02:59:44;;;;;;;26.50;12.93;;;9.60;99.90;;;;;;5015627;28;20021;-84
2022/01/01 03:02:10;;;;;;;30.10;13.05;;;9.60;99.90;;;;;;5026915;28;20039;-84
2022/01/01 03:04:41;;;;;;;29.30;13.73;;;9.60;99.90;;;;;;5015198;28;20446;-84
2022/01/01 03:07:10;;;;;;;30.30;13.40;;;9.60;99.90;;;;;;5027989;28;20404;-84
2022/01/01 03:09:36;;;;;;;27.35;13.00;;;9.60;99.90;;;;;;5043241;28;20044;-84
2022/01/01 03:12:10;;;;;;;33.47;13.50;;;9.60;99.90;;;;;;5013760;28;20029;-84
2022/01/01 03:14:36;;;;;;;33.17;14.57;;;9.60;99.90;;;;;;5050395;28;20060;-84
2022/01/01 03:17:06;;;;;;;30.80;13.85;;;9.60;99.90;;;;;;5031771;28;20094;-84
2022/01/01 03:19:32;;;;;;;28.75;13.55;;;9.50;99.90;;;;;;5051103;28;20510;-84
2022/01/01 03:22:01;;;;;;;38.08;14.93;;;9.50;99.90;;;;;;5041198;28;20320;-84
2022/01/01 03:24:28;;;;;;;30.50;13.98;;;9.50;99.90;;;;;;5007641;28;20028;-84
2022/01/01 03:26:53;;;;;;;35.08;14.65;;;9.50;99.90;;;;;;5034909;28;20143;-84
2022/01/01 03:29:19;;;;;;;33.80;14.73;;;9.50;99.90;;;;;;5013852;28;20048;-84
2022/01/01 03:31:45;;;;;;;31.02;14.13;;;9.50;99.90;;;;;;5018380;28;20029;-84
2022/01/01 03:34:14;;;;;;;30.40;14.30;;;9.40;99.90;;;;;;5031379;28;20067;-84
2022/01/01 03:36:42;;;;;;;39.33;14.63;;;9.50;99.90;;;;;;5034756;28;20419;-84
2022/01/01 03:39:08;;;;;;;32.47;14.18;;;9.50;99.90;;;;;;4995658;28;20037;-84
2022/01/01 03:41:34;;;;;;;31.55;13.55;;;9.50;99.90;;;;;;5030960;28;20035;-85
2022/01/01 03:44:00;;;;;;;33.83;15.80;;;9.50;99.90;;;;;;5027658;28;20428;-84
2022/01/01 03:46:25;;;;;;;31.77;14.27;;;9.50;99.90;;;;;;5038601;28;20029;-85
2022/01/01 03:48:51;;;;;;;33.38;14.73;;;9.40;99.90;;;;;;5019424;28;20028;-84
2022/01/01 03:51:17;;;;;;;32.42;13.52;;;9.50;99.90;;;;;;5055585;28;20028;-84
2022/01/01 03:53:46;;;;;;;34.97;14.65;;;9.50;99.90;;;;;;5011424;28;20034;-84
2022/01/01 03:56:14;;;;;;;30.33;13.60;;;9.40;99.90;;;;;;4997265;28;20026;-85
2022/01/01 03:58:41;;;;;;;34.85;14.23;;;9.40;99.90;;;;;;5022100;28;20170;-83
2022/01/01 04:01:07;;;;;;;35.42;14.25;;;9.40;99.90;;;;;;5037330;28;20033;-84
2022/01/01 04:03:38;;;;;;;31.90;14.25;;;9.40;99.90;;;;;;5038851;28;20078;-84
2022/01/01 04:06:04;;;;;;;28.13;12.50;;;9.40;99.90;;;;;;5019300;28;20038;-84
2022/01/01 04:08:31;;;;;;;30.73;13.35;;;9.40;99.90;;;;;;5025836;28;20560;-84
2022/01/01 04:10:57;;;;;;;30.17;13.52;;;9.40;99.90;;;;;;5054252;28;20116;-85
2022/01/01 04:13:29;;;;;;;30.67;13.32;;;9.40;99.90;;;;;;5024527;28;20034;-84
2022/01/01 04:15:55;;;;;;;29.65;14.23;;;9.40;99.90;;;;;;5031472;28;20064;-84
2022/01/01 04:18:38;;;;;;;29.02;14.68;;;9.50;99.90;;;;;;5025811;28;20057;-84
2022/01/01 04:21:14;;;;;;;30.98;14.13;;;9.40;99.90;;;;;;5005507;28;20381;-84
2022/01/01 04:23:40;;;;;;;32.95;13.63;;;9.40;99.90;;;;;;5014969;28;20030;-84
2022/01/01 04:26:13;;;;;;;30.27;13.20;;;9.40;99.90;;;;;;5027740;28;20029;-84
2022/01/01 04:28:40;;;;;;;34.97;12.80;;;9.40;99.90;;;;;;5044686;28;20032;-84
2022/01/01 04:31:09;;;;;;;28.15;12.82;;;9.40;99.90;;;;;;5029683;28;20465;-85
2022/01/01 04:33:35;;;;;;;27.85;12.95;;;9.40;99.90;;;;;;5037967;28;20032;-84
2022/01/01 04:36:10;;;;;;;31.08;13.32;;;9.40;99.90;;;;;;5032998;28;20120;-84
2022/01/01 04:38:42;;;;;;;25.30;12.02;;;9.40;99.90;;;;;;5032762;28;20033;-84
2022/01/01 04:41:14;;;;;;;28.73;13.30;;;9.40;99.90;;;;;;5015736;28;20029;-84
2022/01/01 04:43:42;;;;;;;30.27;13.80;;;9.40;99.90;;;;;;5029303;28;20030;-84
2022/01/01 04:46:17;;;;;;;29.52;13.85;;;9.40;99.90;;;;;;5034565;28;20036;-84
2022/01/01 04:48:43;;;;;;;28.00;12.45;;;9.40;99.90;;;;;;5030502;28;20029;-84
2022/01/01 04:51:10;;;;;;;28.90;13.27;;;9.40;99.90;;;;;;5021531;28;20423;-84
2022/01/01 04:53:36;;;;;;;26.63;12.38;;;9.40;99.90;;;;;;5016922;28;20032;-84
2022/01/01 04:56:06;;;;;;;25.77;13.55;;;9.40;99.90;;;;;;5034338;28;20473;-84
2022/01/01 04:58:32;;;;;;;32.40;13.57;;;9.40;99.90;;;;;;5041685;28;20506;-84
2022/01/01 05:01:01;;;;;;;32.22;14.20;;;9.40;99.90;;;;;;5019235;28;20543;-84
2022/01/01 05:03:26;;;;;;;29.50;13.77;;;9.30;99.90;;;;;;5042968;28;20685;-84
2022/01/01 05:05:52;;;;;;;28.25;13.70;;;9.30;99.90;;;;;;5046436;28;20132;-85
2022/01/01 05:08:18;;;;;;;28.85;13.40;;;9.30;99.90;;;;;;5007485;28;20047;-84
2022/01/01 05:10:47;;;;;;;25.13;11.80;;;9.30;99.90;;;;;;5020544;28;20064;-84
2022/01/01 05:13:14;;;;;;;28.40;13.93;;;9.20;99.90;;;;;;4999684;28;20570;-84
2022/01/01 05:15:39;;;;;;;28.25;12.23;;;9.20;99.90;;;;;;5004001;28;20044;-84
2022/01/01 05:18:05;;;;;;;26.25;12.38;;;9.20;99.90;;;;;;5016025;28;20120;-84
2022/01/01 05:20:34;;;;;;;25.58;12.73;;;9.20;99.90;;;;;;5034199;28;20035;-84
2022/01/01 05:22:59;;;;;;;23.17;11.95;;;9.20;99.90;;;;;;5002066;28;20033;-84
2022/01/01 05:25:31;;;;;;;25.70;12.90;;;9.20;99.90;;;;;;5017051;28;20119;-84
2022/01/01 05:27:57;;;;;;;27.90;12.77;;;9.20;99.90;;;;;;5010628;28;20031;-84
2022/01/01 05:30:22;;;;;;;23.75;11.63;;;9.30;99.90;;;;;;5020318;28;20509;-84
2022/01/01 05:32:48;;;;;;;24.55;12.40;;;9.30;99.90;;;;;;5009479;28;20503;-84
2022/01/01 05:35:13;;;;;;;26.08;12.32;;;9.30;99.90;;;;;;5019832;28;20044;-84
2022/01/01 05:37:39;;;;;;;24.30;11.68;;;9.30;99.90;;;;;;5009016;28;20040;-84
2022/01/01 05:40:06;;;;;;;27.13;12.32;;;9.30;99.90;;;;;;5005640;28;20024;-84
2022/01/01 05:42:32;;;;;;;27.42;12.18;;;9.30;99.90;;;;;;5022641;28;20069;-84
2022/01/01 05:44:58;;;;;;;24.30;11.88;;;9.30;99.90;;;;;;5020015;28;20032;-84
2022/01/01 05:47:24;;;;;;;28.70;12.82;;;9.30;99.90;;;;;;5016862;28;20085;-84
2022/01/01 05:49:52;;;;;;;26.48;12.00;;;9.30;99.90;;;;;;5019926;28;20036;-84
2022/01/01 05:52:18;;;;;;;28.30;13.32;;;9.30;99.90;;;;;;5006705;28;20504;-84
2022/01/01 05:54:45;;;;;;;23.42;11.60;;;9.30;99.90;;;;;;5019386;28;20036;-85
2022/01/01 05:57:11;;;;;;;29.85;12.60;;;9.30;99.90;;;;;;5004316;28;20030;-84
2022/01/01 05:59:40;;;;;;;29.92;12.00;;;9.30;99.90;;;;;;4980523;28;20125;-84
2022/01/01 06:02:06;;;;;;;25.52;12.27;;;9.30;99.90;;;;;;5004998;28;20026;-84
2022/01/01 06:04:34;;;;;;;28.73;13.02;;;9.30;99.90;;;;;;5029243;28;20397;-84
2022/01/01 06:07:03;;;;;;;26.38;13.20;;;9.30;99.90;;;;;;5012810;28;20037;-84
2022/01/01 06:09:35;;;;;;;26.67;12.20;;;9.30;99.90;;;;;;5029005;28;20043;-84
2022/01/01 06:12:01;;;;;;;25.92;11.43;;;9.30;99.90;;;;;;5027331;28;20442;-84
2022/01/01 06:14:26;;;;;;;29.60;12.30;;;9.30;99.90;;;;;;5035733;28;20028;-84
2022/01/01 06:16:52;;;;;;;29.55;12.80;;;9.30;99.90;;;;;;5031701;28;20035;-84
2022/01/01 06:19:18;;;;;;;36.78;14.13;;;9.30;99.90;;;;;;5019571;28;20509;-84
2022/01/01 06:21:44;;;;;;;26.02;12.63;;;9.30;99.90;;;;;;5016567;28;20489;-84
2022/01/01 06:24:10;;;;;;;25.23;11.95;;;9.30;99.90;;;;;;5012731;28;20113;-84
2022/01/01 06:26:35;;;;;;;27.88;13.48;;;9.30;99.90;;;;;;5013064;28;20119;-84
2022/01/01 06:29:02;;;;;;;37.20;13.32;;;9.30;99.90;;;;;;5017510;28;20067;-84
2022/01/01 06:31:28;;;;;;;33.28;12.05;;;9.30;99.90;;;;;;5049812;28;20055;-84
2022/01/01 06:33:57;;;;;;;25.88;11.63;;;9.30;99.90;;;;;;5009128;28;20459;-84
2022/01/01 06:36:23;;;;;;;25.30;11.18;;;9.30;99.90;;;;;;5012734;28;20039;-84
2022/01/01 06:38:52;;;;;;;25.98;11.35;;;9.30;99.90;;;;;;4996164;28;20121;-84
2022/01/01 06:41:19;;;;;;;24.60;10.88;;;9.30;99.90;;;;;;5015092;28;20036;-84
2022/01/01 06:43:45;;;;;;;19.95;9.15;;;9.20;99.90;;;;;;5016342;28;20391;-84
2022/01/01 06:46:13;;;;;;;20.75;9.25;;;9.20;99.90;;;;;;5019104;28;20033;-84
2022/01/01 06:48:39;;;;;;;26.88;10.90;;;9.20;99.90;;;;;;5034231;28;20055;-84
2022/01/01 06:51:05;;;;;;;20.50;9.90;;;9.20;99.90;;;;;;5019461;28;20037;-85
2022/01/01 06:53:30;;;;;;;21.10;9.25;;;9.20;99.90;;;;;;5023578;28;20488;-84
2022/01/01 06:55:59;;;;;;;21.13;9.20;;;9.20;99.90;;;;;;4979792;28;20412;-84
2022/01/01 06:58:24;;;;;;;22.25;9.45;;;9.20;99.90;;;;;;4982968;28;20025;-84
2022/01/01 07:00:50;;;;;;;21.60;9.45;;;9.20;99.90;;;;;;5012474;28;20516;-85
2022/01/01 07:03:22;;;;;;;23.35;9.15;;;9.10;99.90;;;;;;5011809;28;20111;-84
2022/01/01 07:05:48;;;;;;;22.67;9.50;;;9.20;99.90;;;;;;5012426;28;20558;-84
2022/01/01 07:08:14;;;;;;;19.10;9.15;;;9.10;99.90;;;;;;5029072;28;20416;-86
2022/01/01 07:10:41;;;;;;;19.23;8.98;;;9.10;99.90;;;;;;4999255;28;20045;-84
2022/01/01 07:13:07;;;;;;;19.38;9.40;;;9.10;99.90;;;;;;5015041;28;20434;-84
2022/01/01 07:15:33;;;;;;;23.08;10.13;;;9.10;99.90;;;;;;5011996;28;20030;-84
2022/01/01 07:17:59;;;;;;;19.98;9.55;;;9.10;99.90;;;;;;4981360;28;20558;-84
2022/01/01 07:20:28;;;;;;;18.13;9.70;;;9.10;99.90;;;;;;5012799;28;20039;-84
2022/01/01 07:22:54;;;;;;;23.23;10.00;;;9.10;99.90;;;;;;5023213;28;20028;-84
2022/01/01 07:25:25;;;;;;;19.13;8.98;;;9.10;99.90;;;;;;5015610;28;20039;-84
2022/01/01 07:27:51;;;;;;;22.83;9.80;;;9.10;99.90;;;;;;5039546;28;20296;-84
2022/01/01 07:30:17;;;;;;;21.20;9.57;;;9.10;99.90;;;;;;5019744;28;20300;-85
2022/01/01 07:32:46;;;;;;;25.35;9.35;;;9.10;99.90;;;;;;5038148;28;20127;-84
2022/01/01 07:35:14;;;;;;;19.35;9.18;;;9.10;99.90;;;;;;5018659;28;20016;-84
2022/01/01 07:37:41;;;;;;;19.35;8.68;;;9.10;99.90;;;;;;5047411;28;20028;-84
2022/01/01 07:40:12;;;;;;;20.25;8.45;;;9.10;99.90;;;;;;5010435;28;20561;-84
2022/01/01 07:42:38;;;;;;;18.90;8.93;;;9.10;99.90;;;;;;5038818;28;20031;-84
2022/01/01 07:45:05;;;;;;;19.63;9.50;;;9.10;99.90;;;;;;5012314;28;20033;-84
2022/01/01 07:47:31;;;;;;;19.77;9.32;;;9.10;99.90;;;;;;5054878;28;20487;-84
2022/01/01 07:50:00;;;;;;;23.17;8.82;;;9.10;99.90;;;;;;5002494;28;20044;-83
2022/01/01 07:52:32;;;;;;;21.45;8.10;;;9.10;99.90;;;;;;5034316;28;20063;-84
2022/01/01 07:54:58;;;;;;;24.80;8.70;;;9.20;99.90;;;;;;5038606;28;20040;-84
2022/01/01 07:57:27;;;;;;;18.48;8.98;;;9.20;99.90;;;;;;5038171;28;20487;-84
2022/01/01 07:59:56;;;;;;;17.85;8.07;;;9.20;99.90;;;;;;5032193;28;20044;-84
2022/01/01 08:02:22;;;;;;;21.10;8.68;;;9.20;99.90;;;;;;5022505;28;20032;-84
2022/01/01 08:04:48;;;;;;;19.02;8.18;;;9.20;99.90;;;;;;5010230;28;20105;-84
2022/01/01 08:07:13;;;;;;;20.52;8.77;;;9.20;99.90;;;;;;5038226;28;20045;-84
2022/01/01 08:09:39;;;;;;;15.90;8.20;;;9.20;99.90;;;;;;5028602;28;20041;-83
2022/01/01 08:12:07;;;;;;;18.17;7.95;;;9.20;99.90;;;;;;5038363;28;20045;-84
2022/01/01 08:14:35;;;;;;;18.27;7.28;;;9.20;99.90;;;;;;5032405;28;20040;-84
2022/01/01 08:17:08;;;;;;;15.27;8.07;;;9.20;99.90;;;;;;4998890;28;20397;-84
2022/01/01 08:19:35;;;;;;;21.77;8.48;;;9.30;99.90;;;;;;5007169;28;20052;-85
2022/01/01 08:22:00;;;;;;;16.08;8.20;;;9.30;99.90;;;;;;5037865;28;20031;-85
2022/01/01 08:24:26;;;;;;;17.05;7.95;;;9.30;99.90;;;;;;5049150;28;20025;-84
2022/01/01 08:26:52;;;;;;;14.55;7.75;;;9.30;99.90;;;;;;5027477;28;20037;-84
2022/01/01 08:29:18;;;;;;;17.98;8.23;;;9.30;99.90;;;;;;5013415;28;20032;-84
2022/01/01 08:31:43;;;;;;;17.85;7.90;;;9.30;99.90;;;;;;5037776;28;20090;-84
2022/01/01 08:34:15;;;;;;;17.88;8.55;;;9.40;99.90;;;;;;5029650;28;20040;-84
2022/01/01 08:36:41;;;;;;;21.38;9.55;;;9.40;99.90;;;;;;5053978;28;20029;-84
2022/01/01 08:39:08;;;;;;;18.08;9.45;;;9.40;99.90;;;;;;5013123;28;20141;-84
2022/01/01 08:41:34;;;;;;;18.48;9.70;;;9.40;99.90;;;;;;5019666;28;20408;-84
2022/01/01 08:44:00;;;;;;;18.27;8.75;;;9.40;99.90;;;;;;5024941;28;20021;-84
2022/01/01 08:46:26;;;;;;;17.42;8.73;;;9.50;99.90;;;;;;5007033;28;20044;-85
2022/01/01 08:48:52;;;;;;;17.27;9.10;;;9.60;99.90;;;;;;4999370;28;20044;-85
2022/01/01 08:51:22;;;;;;;16.83;9.15;;;9.70;99.90;;;;;;5029329;28;20034;-85
2022/01/01 08:53:48;;;;;;;15.70;8.18;;;9.70;99.90;;;;;;5033562;28;20555;-84
2022/01/01 08:56:15;;;;;;;16.55;8.25;;;9.80;99.90;;;;;;5042102;28;20136;-85
2022/01/01 08:58:41;;;;;;;18.02;9.25;;;9.80;99.90;;;;;;5013947;28;20021;-83
2022/01/01 09:01:08;;;;;;;18.50;8.43;;;9.90;99.90;;;;;;5013470;28;20399;-84
2022/01/01 09:03:35;;;;;;;22.88;10.02;;;10.00;99.90;;;;;;5016240;28;20484;-84
2022/01/01 09:06:01;;;;;;;16.85;8.05;;;10.00;99.90;;;;;;5028879;28;20049;-84
2022/01/01 09:08:27;;;;;;;19.35;8.63;;;10.10;99.90;;;;;;4997981;28;20057;-83
2022/01/01 09:10:53;;;;;;;15.00;8.13;;;10.20;99.90;;;;;;5020500;28;20095;-84
2022/01/01 09:13:18;;;;;;;17.58;8.18;;;10.20;99.90;;;;;;5016922;28;20029;-88
2022/01/01 09:15:44;;;;;;;16.85;8.30;;;10.30;99.90;;;;;;5012692;28;20079;-89
2022/01/01 09:18:10;;;;;;;15.57;8.35;;;10.40;99.90;;;;;;5007185;28;20051;-83
2022/01/01 09:20:36;;;;;;;17.63;8.05;;;10.50;99.90;;;;;;5012185;28;20029;-82
2022/01/01 09:23:01;;;;;;;18.17;9.00;;;10.50;99.90;;;;;;5004864;28;20086;-83
2022/01/01 09:25:27;;;;;;;16.05;8.10;;;10.60;99.90;;;;;;5025336;28;20128;-84
2022/01/01 09:27:53;;;;;;;16.15;7.78;;;10.70;99.90;;;;;;5006291;28;20485;-84
2022/01/01 09:30:20;;;;;;;12.68;6.80;;;10.80;99.90;;;;;;5022933;28;20519;-83
2022/01/01 09:32:45;;;;;;;16.55;7.65;;;10.90;99.90;;;;;;5020556;28;20032;-83
2022/01/01 09:35:13;;;;;;;15.65;7.32;;;11.00;99.90;;;;;;5036775;28;20028;-83
2022/01/01 09:37:38;;;;;;;11.48;6.38;;;11.00;99.90;;;;;;5013569;28;20531;-83
2022/01/01 09:40:04;;;;;;;12.35;6.20;;;11.10;99.90;;;;;;5005283;28;20028;-83
2022/01/01 09:42:31;;;;;;;11.85;6.75;;;11.20;99.90;;;;;;5000616;28;20056;-83
2022/01/01 09:44:58;;;;;;;12.90;5.95;;;11.20;99.90;;;;;;5022486;28;20120;-83
2022/01/01 09:47:27;;;;;;;10.82;6.03;;;11.30;99.90;;;;;;5033573;28;20033;-83
2022/01/01 09:49:53;;;;;;;14.48;6.15;;;11.30;99.90;;;;;;5014950;28;20028;-83
2022/01/01 09:52:19;;;;;;;15.68;6.20;;;11.30;99.90;;;;;;5028275;28;20048;-82
2022/01/01 09:54:47;;;;;;;9.48;5.78;;;11.30;99.90;;;;;;5002710;28;20032;-83
2022/01/01 09:57:13;;;;;;;10.60;5.88;;;11.40;99.90;;;;;;5047669;28;20387;-82
2022/01/01 09:59:39;;;;;;;11.73;5.72;;;11.40;99.90;;;;;;5012503;28;20038;-82
2022/01/01 10:02:06;;;;;;;9.10;5.47;;;11.40;99.90;;;;;;4992694;28;20446;-85
2022/01/01 10:04:48;;;;;;;9.68;5.65;;;11.40;99.90;;;;;;5020420;28;20364;-82
2022/01/01 10:07:14;;;;;;;12.45;6.18;;;11.50;99.90;;;;;;4997850;28;20389;-82
2022/01/01 10:09:40;;;;;;;10.95;5.18;;;11.50;99.90;;;;;;5022813;28;20513;-82
2022/01/01 10:12:10;;;;;;;9.27;5.75;;;11.50;99.90;;;;;;5025551;28;20091;-82
2022/01/01 10:14:38;;;;;;;10.50;5.80;;;11.50;99.90;;;;;;5013885;28;20352;-83
2022/01/01 10:17:22;;;;;;;14.32;6.00;;;11.50;99.90;;;;;;5013261;28;20025;-82
2022/01/01 10:19:53;;;;;;;9.55;5.53;;;11.60;99.90;;;;;;5012245;28;20030;-82
2022/01/01 10:22:21;;;;;;;13.32;5.63;;;11.60;99.90;;;;;;5005242;28;20522;-83
2022/01/01 10:27:43;;;;;;;7.25;4.32;;;11.60;99.90;;;;;;5035967;28;20053;-83
2022/01/01 10:30:38;;;;;;;10.82;5.30;;;11.70;99.90;;;;;;5020200;28;20080;-82
2022/01/01 10:33:18;;;;;;;11.93;6.00;;;11.70;99.90;;;;;;5023222;28;20036;-84
2022/01/01 10:35:46;;;;;;;9.85;4.78;;;11.70;99.90;;;;;;5029829;28;20037;-83
2022/01/01 10:38:23;;;;;;;10.90;4.70;;;11.70;99.90;;;;;;5017227;28;20036;-82
2022/01/01 10:40:54;;;;;;;12.32;6.05;;;11.80;99.90;;;;;;5019559;28;20452;-83
2022/01/01 10:43:33;;;;;;;10.45;6.00;;;11.80;99.90;;;;;;5027047;28;20403;-82
2022/01/01 10:45:59;;;;;;;10.50;5.20;;;11.80;99.90;;;;;;5013899;28;20040;-83
2022/01/01 10:48:41;;;;;;;9.30;5.05;;;11.90;99.90;;;;;;5007468;28;20044;-82
2022/01/01 10:51:10;;;;;;;10.05;5.28;;;11.90;99.90;;;;;;5022867;28;20032;-82
2022/01/01 10:53:37;;;;;;;8.93;4.55;;;11.90;99.90;;;;;;5039541;28;20082;-83
2022/01/01 10:56:15;;;;;;;11.93;5.22;;;12.00;99.90;;;;;;5036891;28;20041;-83
2022/01/01 10:58:42;;;;;;;10.50;4.43;;;12.00;99.90;;;;;;5033136;28;20018;-82
2022/01/01 11:01:09;;;;;;;9.60;4.95;;;12.00;99.90;;;;;;5036961;28;20112;-82
2022/01/01 11:03:43;;;;;;;6.45;4.10;;;12.00;99.90;;;;;;4998176;28;20403;-82
2022/01/01 11:06:12;;;;;;;8.98;4.50;;;12.00;99.90;;;;;;5003564;28;20037;-82
2022/01/01 11:08:43;;;;;;;8.73;4.57;;;12.10;99.90;;;;;;5022581;28;20033;-82
2022/01/01 11:11:10;;;;;;;11.77;5.75;;;12.10;99.90;;;;;;5031765;28;20417;-82
2022/01/01 11:13:37;;;;;;;8.57;5.60;;;12.10;99.90;;;;;;5053845;28;20119;-82
2022/01/01 11:16:05;;;;;;;8.77;4.32;;;12.10;99.90;;;;;;5021957;28;20518;-82
2022/01/01 11:18:35;;;;;;;5.78;4.25;;;12.10;99.90;;;;;;5036937;28;20029;-83
2022/01/01 11:21:04;;;;;;;6.68;4.30;;;12.10;99.90;;;;;;5023187;28;20021;-85
2022/01/01 11:23:31;;;;;;;9.40;5.13;;;12.10;99.90;;;;;;5035371;28;20033;-84
2022/01/01 11:26:02;;;;;;;6.25;3.72;;;12.10;99.90;;;;;;5017926;28;20030;-82
2022/01/01 11:28:27;;;;;;;8.13;4.25;;;12.10;99.90;;;;;;5049117;28;20064;-84
2022/01/01 11:31:10;;;;;;;10.13;4.20;;;12.00;99.90;;;;;;5034020;28;20052;-83
2022/01/01 11:33:49;;;;;;;5.88;3.97;;;12.00;99.90;;;;;;5041390;28;20080;-83
2022/01/01 11:36:29;;;;;;;10.98;4.88;;;12.00;99.90;;;;;;5047090;28;20040;-83
2022/01/01 11:38:55;;;;;;;8.20;5.13;;;12.00;99.90;;;;;;5022994;28;20025;-84
2022/01/01 11:41:22;;;;;;;8.90;4.68;;;12.00;99.90;;;;;;5038748;28;20182;-83
2022/01/01 11:43:53;;;;;;;10.93;5.07;;;12.00;99.90;;;;;;5038667;28;20025;-84
2022/01/01 11:46:27;;;;;;;9.07;4.03;;;12.00;99.90;;;;;;5038485;28;20123;-83
2022/01/01 11:49:01;;;;;;;6.97;3.95;;;12.00;99.90;;;;;;5032722;28;20040;-84
2022/01/01 11:51:33;;;;;;;12.48;4.68;;;12.00;99.90;;;;;;5039113;28;20120;-83
2022/01/01 11:54:34;;;;;;;7.18;3.22;;;11.90;99.90;;;;;;5023500;28;20029;-84
2022/01/01 11:57:00;;;;;;;6.88;4.38;;;12.00;99.90;;;;;;5052024;28;20060;-83
2022/01/01 11:59:36;;;;;;;7.53;4.53;;;11.90;99.90;;;;;;5055672;28;20063;-84
2022/01/01 12:02:11;;;;;;;13.25;4.68;;;11.90;99.90;;;;;;5039465;28;20123;-84
2022/01/01 12:04:43;;;;;;;11.65;4.65;;;11.90;99.90;;;;;;5054336;28;20020;-83
2022/01/01 12:07:20;;;;;;;8.25;4.35;;;11.90;99.90;;;;;;5054969;28;20313;-83
2022/01/01 12:10:05;;;;;;;7.65;3.95;;;11.90;99.90;;;;;;5055297;28;20518;-83
2022/01/01 12:12:37;;;;;;;7.82;3.65;;;12.00;99.90;;;;;;5055269;28;20086;-84
2022/01/01 12:15:36;;;;;;;8.38;4.18;;;12.00;99.90;;;;;;5054611;28;20043;-82
2022/01/01 12:18:19;;;;;;;6.57;4.20;;;12.00;99.90;;;;;;5048076;28;20560;-82
2022/01/01 12:21:02;;;;;;;6.25;3.47;;;12.00;99.90;;;;;;5038283;28;20037;-82
2022/01/01 12:23:35;;;;;;;9.85;5.13;;;12.00;99.90;;;;;;5038758;28;20033;-83
2022/01/01 12:26:10;;;;;;;8.43;4.25;;;12.00;99.90;;;;;;5038849;28;20387;-83
2022/01/01 12:28:40;;;;;;;11.23;5.15;;;12.00;99.90;;;;;;5054882;28;20024;-83
2022/01/01 12:31:10;;;;;;;8.43;4.68;;;12.10;99.90;;;;;;5054285;28;20086;-83
2022/01/01 12:33:41;;;;;;;11.37;5.47;;;12.10;99.90;;;;;;5038186;28;20035;-83
2022/01/01 12:36:25;;;;;;;10.95;4.78;;;12.10;99.90;;;;;;5054399;28;20178;-83
2022/01/01 12:38:52;;;;;;;8.35;4.40;;;12.10;99.90;;;;;;5054788;28;20021;-83
2022/01/01 12:41:24;;;;;;;8.73;5.45;;;12.10;99.90;;;;;;5053962;28;20056;-82
2022/01/01 12:43:52;;;;;;;10.57;4.70;;;12.20;99.90;;;;;;5054791;28;20025;-84
2022/01/01 12:46:28;;;;;;;12.02;4.65;;;12.10;99.90;;;;;;5037868;28;20110;-83
2022/01/01 12:48:57;;;;;;;9.73;4.88;;;12.20;99.90;;;;;;5038797;28;20059;-83
2022/01/01 12:51:25;;;;;;;10.00;5.07;;;12.20;99.90;;;;;;5021751;28;20078;-84
2022/01/01 12:54:03;;;;;;;10.10;4.57;;;12.30;99.90;;;;;;5037910;28;20419;-83